sensor_id;sensor_type;location;lat;lon;timestamp;temperature;humidity
59301;DHT22;45073;52.740;6.784;2024-03-02T00:00:21;8.30;99.90
59301;DHT22;45073;52.740;6.784;2024-03-02T00:02:48;8.30;99.90
59301;DHT22;45073;52.740;6.784;2024-03-02T00:05:19;8.30;99.90
59301;DHT22;45073;52.740;6.784;2024-03-02T00:10:25;8.30;99.90
59301;DHT22;45073;52.740;6.784;2024-03-02T00:12:58;8.30;99.90
59301;DHT22;45073;52.740;6.784;2024-03-02T00:15:46;8.30;99.90
59301;DHT22;45073;52.740;6.784;2024-03-02T00:18:16;8.30;99.90
59301;DHT22;45073;52.740;6.784;2024-03-02T00:20:42;8.30;99.90
59301;DHT22;45073;52.740;6.784;2024-03-02T00:23:10;8.30;99.90
59301;DHT22;45073;52.740;6.784;2024-03-02T00:28:01;8.30;99.90
59301;DHT22;45073;52.740;6.784;2024-03-02T00:30:44;8.30;99.90
59301;DHT22;45073;52.740;6.784;2024-03-02T00:33:15;8.30;99.90
59301;DHT22;45073;52.740;6.784;2024-03-02T00:35:44;8.30;99.90
59301;DHT22;45073;52.740;6.784;2024-03-02T00:38:10;8.30;99.90
59301;DHT22;45073;52.740;6.784;2024-03-02T00:40:36;8.30;99.90
59301;DHT22;45073;52.740;6.784;2024-03-02T00:43:02;8.30;99.90
59301;DHT22;45073;52.740;6.784;2024-03-02T00:45:29;8.30;99.90
59301;DHT22;45073;52.740;6.784;2024-03-02T00:47:55;8.30;99.90
59301;DHT22;45073;52.740;6.784;2024-03-02T00:50:20;8.30;99.90
59301;DHT22;45073;52.740;6.784;2024-03-02T00:52:47;8.30;99.90
59301;DHT22;45073;52.740;6.784;2024-03-02T00:55:15;8.30;99.90
59301;DHT22;45073;52.740;6.784;2024-03-02T00:57:41;8.30;99.90
59301;DHT22;45073;52.740;6.784;2024-03-02T01:00:07;8.40;99.90
59301;DHT22;45073;52.740;6.784;2024-03-02T01:02:35;8.30;99.90
59301;DHT22;45073;52.740;6.784;2024-03-02T01:05:01;8.30;99.90
59301;DHT22;45073;52.740;6.784;2024-03-02T01:07:27;8.30;99.90
59301;DHT22;45073;52.740;6.784;2024-03-02T01:09:52;8.40;99.90
59301;DHT22;45073;52.740;6.784;2024-03-02T01:12:18;8.40;99.90
59301;DHT22;45073;52.740;6.784;2024-03-02T01:14:43;8.40;99.90
59301;DHT22;45073;52.740;6.784;2024-03-02T01:17:09;8.40;99.90
59301;DHT22;45073;52.740;6.784;2024-03-02T01:19:35;8.40;99.90
59301;DHT22;45073;52.740;6.784;2024-03-02T01:22:01;8.40;99.90
59301;DHT22;45073;52.740;6.784;2024-03-02T01:24:26;8.40;99.90
59301;DHT22;45073;52.740;6.784;2024-03-02T01:26:52;8.40;99.90
59301;DHT22;45073;52.740;6.784;2024-03-02T01:29:18;8.40;99.90
59301;DHT22;45073;52.740;6.784;2024-03-02T01:31:43;8.40;99.90
59301;DHT22;45073;52.740;6.784;2024-03-02T01:34:09;8.40;99.90
59301;DHT22;45073;52.740;6.784;2024-03-02T01:36:34;8.40;99.90
59301;DHT22;45073;52.740;6.784;2024-03-02T01:39:00;8.40;99.90
59301;DHT22;45073;52.740;6.784;2024-03-02T01:41:26;8.40;99.90
59301;DHT22;45073;52.740;6.784;2024-03-02T01:43:51;8.50;99.90
59301;DHT22;45073;52.740;6.784;2024-03-02T01:46:17;8.50;99.90
59301;DHT22;45073;52.740;6.784;2024-03-02T01:48:43;8.50;99.90
59301;DHT22;45073;52.740;6.784;2024-03-02T01:51:08;8.50;99.90
59301;DHT22;45073;52.740;6.784;2024-03-02T01:53:35;8.50;99.90
59301;DHT22;45073;52.740;6.784;2024-03-02T01:56:02;8.50;99.90
59301;DHT22;45073;52.740;6.784;2024-03-02T01:58:28;8.50;99.90
59301;DHT22;45073;52.740;6.784;2024-03-02T02:00:53;8.50;99.90
59301;DHT22;45073;52.740;6.784;2024-03-02T02:03:19;8.50;99.90
59301;DHT22;45073;52.740;6.784;2024-03-02T02:05:45;8.40;99.90
59301;DHT22;45073;52.740;6.784;2024-03-02T02:08:12;8.50;99.90
59301;DHT22;45073;52.740;6.784;2024-03-02T02:10:38;8.50;99.90
59301;DHT22;45073;52.740;6.784;2024-03-02T02:13:03;8.50;99.90
59301;DHT22;45073;52.740;6.784;2024-03-02T02:15:29;8.50;99.90
59301;DHT22;45073;52.740;6.784;2024-03-02T02:17:57;8.50;99.90
59301;DHT22;45073;52.740;6.784;2024-03-02T02:20:23;8.50;99.90
59301;DHT22;45073;52.740;6.784;2024-03-02T02:23:03;8.50;99.90
59301;DHT22;45073;52.740;6.784;2024-03-02T02:25:30;8.60;99.90
59301;DHT22;45073;52.740;6.784;2024-03-02T02:27:57;8.60;99.90
59301;DHT22;45073;52.740;6.784;2024-03-02T02:30:30;8.60;99.90
59301;DHT22;45073;52.740;6.784;2024-03-02T02:32:57;8.60;99.90
59301;DHT22;45073;52.740;6.784;2024-03-02T02:35:23;8.60;99.90
59301;DHT22;45073;52.740;6.784;2024-03-02T02:37:53;8.60;99.90
59301;DHT22;45073;52.740;6.784;2024-03-02T02:40:19;8.60;99.90
59301;DHT22;45073;52.740;6.784;2024-03-02T02:42:45;8.60;99.90
59301;DHT22;45073;52.740;6.784;2024-03-02T02:45:10;8.60;99.90
59301;DHT22;45073;52.740;6.784;2024-03-02T02:47:38;8.60;99.90
59301;DHT22;45073;52.740;6.784;2024-03-02T02:50:06;8.60;99.90
59301;DHT22;45073;52.740;6.784;2024-03-02T02:52:33;8.60;99.90
59301;DHT22;45073;52.740;6.784;2024-03-02T02:54:59;8.60;99.90
59301;DHT22;45073;52.740;6.784;2024-03-02T02:57:25;8.70;99.90
59301;DHT22;45073;52.740;6.784;2024-03-02T02:59:50;8.70;99.90
59301;DHT22;45073;52.740;6.784;2024-03-02T03:02:16;8.70;99.90
59301;DHT22;45073;52.740;6.784;2024-03-02T03:04:41;8.70;99.90
59301;DHT22;45073;52.740;6.784;2024-03-02T03:07:07;8.70;99.90
59301;DHT22;45073;52.740;6.784;2024-03-02T03:09:33;8.70;99.90
59301;DHT22;45073;52.740;6.784;2024-03-02T03:11:58;8.70;99.90
59301;DHT22;45073;52.740;6.784;2024-03-02T03:14:24;8.70;99.90
59301;DHT22;45073;52.740;6.784;2024-03-02T03:16:50;8.70;99.90
59301;DHT22;45073;52.740;6.784;2024-03-02T03:19:16;8.70;99.90
59301;DHT22;45073;52.740;6.784;2024-03-02T03:21:43;8.70;99.90
59301;DHT22;45073;52.740;6.784;2024-03-02T03:24:09;8.70;99.90
59301;DHT22;45073;52.740;6.784;2024-03-02T03:26:36;8.70;99.90
59301;DHT22;45073;52.740;6.784;2024-03-02T03:29:02;8.70;99.90
59301;DHT22;45073;52.740;6.784;2024-03-02T03:31:28;8.70;99.90
59301;DHT22;45073;52.740;6.784;2024-03-02T03:33:54;8.70;99.90
59301;DHT22;45073;52.740;6.784;2024-03-02T03:36:20;8.70;99.90
59301;DHT22;45073;52.740;6.784;2024-03-02T03:38:46;8.70;99.90
59301;DHT22;45073;52.740;6.784;2024-03-02T03:41:11;8.70;99.90
59301;DHT22;45073;52.740;6.784;2024-03-02T03:43:37;8.70;99.90
59301;DHT22;45073;52.740;6.784;2024-03-02T03:46:03;8.70;99.90
59301;DHT22;45073;52.740;6.784;2024-03-02T03:48:28;8.70;99.90
59301;DHT22;45073;52.740;6.784;2024-03-02T03:50:56;8.70;99.90
59301;DHT22;45073;52.740;6.784;2024-03-02T03:53:22;8.60;99.90
59301;DHT22;45073;52.740;6.784;2024-03-02T03:55:48;8.60;99.90
59301;DHT22;45073;52.740;6.784;2024-03-02T03:58:15;8.60;99.90
59301;DHT22;45073;52.740;6.784;2024-03-02T04:00:42;8.60;99.90
59301;DHT22;45073;52.740;6.784;2024-03-02T04:03:07;8.60;99.90
59301;DHT22;45073;52.740;6.784;2024-03-02T04:05:33;8.60;99.90
59301;DHT22;45073;52.740;6.784;2024-03-02T04:07:59;8.60;99.90
59301;DHT22;45073;52.740;6.784;2024-03-02T04:10:25;8.60;99.90
59301;DHT22;45073;52.740;6.784;2024-03-02T04:12:51;8.60;99.90
59301;DHT22;45073;52.740;6.784;2024-03-02T04:15:17;8.60;99.90
59301;DHT22;45073;52.740;6.784;2024-03-02T04:17:44;8.60;99.90
59301;DHT22;45073;52.740;6.784;2024-03-02T04:20:10;8.60;99.90
59301;DHT22;45073;52.740;6.784;2024-03-02T04:22:38;8.60;99.90
59301;DHT22;45073;52.740;6.784;2024-03-02T04:25:04;8.60;99.90
59301;DHT22;45073;52.740;6.784;2024-03-02T04:27:32;8.60;99.90
59301;DHT22;45073;52.740;6.784;2024-03-02T04:29:59;8.60;99.90
59301;DHT22;45073;52.740;6.784;2024-03-02T04:32:26;8.60;99.90
59301;DHT22;45073;52.740;6.784;2024-03-02T04:34:52;8.60;99.90
59301;DHT22;45073;52.740;6.784;2024-03-02T04:37:18;8.60;99.90
59301;DHT22;45073;52.740;6.784;2024-03-02T04:39:43;8.60;99.90
59301;DHT22;45073;52.740;6.784;2024-03-02T04:42:09;8.60;99.90
59301;DHT22;45073;52.740;6.784;2024-03-02T04:44:35;8.60;99.90
59301;DHT22;45073;52.740;6.784;2024-03-02T04:47:00;8.60;99.90
59301;DHT22;45073;52.740;6.784;2024-03-02T04:49:26;8.60;99.90
59301;DHT22;45073;52.740;6.784;2024-03-02T04:51:51;8.60;99.90
59301;DHT22;45073;52.740;6.784;2024-03-02T04:54:17;8.60;99.90
59301;DHT22;45073;52.740;6.784;2024-03-02T04:56:43;8.60;99.90
59301;DHT22;45073;52.740;6.784;2024-03-02T04:59:15;8.60;99.90
59301;DHT22;45073;52.740;6.784;2024-03-02T05:01:41;8.60;99.90
59301;DHT22;45073;52.740;6.784;2024-03-02T05:04:07;8.60;99.90
59301;DHT22;45073;52.740;6.784;2024-03-02T05:06:33;8.60;99.90
59301;DHT22;45073;52.740;6.784;2024-03-02T05:08:58;8.60;99.90
59301;DHT22;45073;52.740;6.784;2024-03-02T05:11:24;8.60;99.90
59301;DHT22;45073;52.740;6.784;2024-03-02T05:14:08;8.50;99.90
59301;DHT22;45073;52.740;6.784;2024-03-02T05:16:37;8.50;99.90
59301;DHT22;45073;52.740;6.784;2024-03-02T05:19:07;8.50;99.90
59301;DHT22;45073;52.740;6.784;2024-03-02T05:21:33;8.50;99.90
59301;DHT22;45073;52.740;6.784;2024-03-02T05:23:59;8.50;99.90
59301;DHT22;45073;52.740;6.784;2024-03-02T05:26:25;8.50;99.90
59301;DHT22;45073;52.740;6.784;2024-03-02T05:28:51;8.50;99.90
59301;DHT22;45073;52.740;6.784;2024-03-02T05:31:16;8.40;99.90
59301;DHT22;45073;52.740;6.784;2024-03-02T05:33:43;8.40;99.90
59301;DHT22;45073;52.740;6.784;2024-03-02T05:36:08;8.40;99.90
59301;DHT22;45073;52.740;6.784;2024-03-02T05:38:37;8.30;99.90
59301;DHT22;45073;52.740;6.784;2024-03-02T05:41:03;8.30;99.90
59301;DHT22;45073;52.740;6.784;2024-03-02T05:43:29;8.30;99.90
59301;DHT22;45073;52.740;6.784;2024-03-02T05:45:54;8.20;99.90
59301;DHT22;45073;52.740;6.784;2024-03-02T05:48:20;8.20;99.90
59301;DHT22;45073;52.740;6.784;2024-03-02T05:50:46;8.20;99.90
59301;DHT22;45073;52.740;6.784;2024-03-02T05:53:12;8.10;99.90
59301;DHT22;45073;52.740;6.784;2024-03-02T05:55:37;8.10;99.90
59301;DHT22;45073;52.740;6.784;2024-03-02T05:58:03;8.10;99.90
59301;DHT22;45073;52.740;6.784;2024-03-02T06:00:31;8.10;99.90
59301;DHT22;45073;52.740;6.784;2024-03-02T06:02:57;8.00;99.90
59301;DHT22;45073;52.740;6.784;2024-03-02T06:05:23;8.00;99.90
59301;DHT22;45073;52.740;6.784;2024-03-02T06:07:49;8.00;99.90
59301;DHT22;45073;52.740;6.784;2024-03-02T06:10:14;7.90;99.90
59301;DHT22;45073;52.740;6.784;2024-03-02T06:12:40;7.90;99.90
59301;DHT22;45073;52.740;6.784;2024-03-02T06:15:06;7.90;99.90
59301;DHT22;45073;52.740;6.784;2024-03-02T06:17:32;7.90;99.90
59301;DHT22;45073;52.740;6.784;2024-03-02T06:19:58;7.90;99.90
59301;DHT22;45073;52.740;6.784;2024-03-02T06:22:23;7.90;99.90
59301;DHT22;45073;52.740;6.784;2024-03-02T06:24:50;7.90;99.90
59301;DHT22;45073;52.740;6.784;2024-03-02T06:27:16;7.90;99.90
59301;DHT22;45073;52.740;6.784;2024-03-02T06:29:42;7.90;99.90
59301;DHT22;45073;52.740;6.784;2024-03-02T06:32:08;7.90;99.90
59301;DHT22;45073;52.740;6.784;2024-03-02T06:34:33;7.90;99.90
59301;DHT22;45073;52.740;6.784;2024-03-02T06:36:59;8.00;99.90
59301;DHT22;45073;52.740;6.784;2024-03-02T06:39:25;8.00;99.90
59301;DHT22;45073;52.740;6.784;2024-03-02T06:41:51;8.00;99.90
59301;DHT22;45073;52.740;6.784;2024-03-02T06:44:17;8.00;99.90
59301;DHT22;45073;52.740;6.784;2024-03-02T06:46:43;8.00;99.90
59301;DHT22;45073;52.740;6.784;2024-03-02T06:49:08;8.00;99.90
59301;DHT22;45073;52.740;6.784;2024-03-02T06:51:36;8.00;99.90
59301;DHT22;45073;52.740;6.784;2024-03-02T06:54:02;8.00;99.90
59301;DHT22;45073;52.740;6.784;2024-03-02T06:56:27;8.10;99.90
59301;DHT22;45073;52.740;6.784;2024-03-02T06:58:53;8.10;99.90
59301;DHT22;45073;52.740;6.784;2024-03-02T07:01:19;8.00;99.90
59301;DHT22;45073;52.740;6.784;2024-03-02T07:03:45;8.00;99.90
59301;DHT22;45073;52.740;6.784;2024-03-02T07:06:11;8.00;99.90
59301;DHT22;45073;52.740;6.784;2024-03-02T07:08:37;8.00;99.90
59301;DHT22;45073;52.740;6.784;2024-03-02T07:11:02;7.90;99.90
59301;DHT22;45073;52.740;6.784;2024-03-02T07:13:28;7.90;99.90
59301;DHT22;45073;52.740;6.784;2024-03-02T07:15:55;7.90;99.90
59301;DHT22;45073;52.740;6.784;2024-03-02T07:18:30;7.90;99.90
59301;DHT22;45073;52.740;6.784;2024-03-02T07:20:56;7.80;99.90
59301;DHT22;45073;52.740;6.784;2024-03-02T07:23:24;7.80;99.90
59301;DHT22;45073;52.740;6.784;2024-03-02T07:25:53;7.80;99.90
59301;DHT22;45073;52.740;6.784;2024-03-02T07:28:22;7.80;99.90
59301;DHT22;45073;52.740;6.784;2024-03-02T07:31:01;7.80;99.90
59301;DHT22;45073;52.740;6.784;2024-03-02T07:33:27;7.80;99.90
59301;DHT22;45073;52.740;6.784;2024-03-02T07:35:54;7.80;99.90
59301;DHT22;45073;52.740;6.784;2024-03-02T07:38:21;7.90;99.90
59301;DHT22;45073;52.740;6.784;2024-03-02T07:40:48;7.90;99.90
59301;DHT22;45073;52.740;6.784;2024-03-02T07:43:16;7.90;99.90
59301;DHT22;45073;52.740;6.784;2024-03-02T07:45:42;7.90;99.90
59301;DHT22;45073;52.740;6.784;2024-03-02T07:48:08;8.00;99.90
59301;DHT22;45073;52.740;6.784;2024-03-02T07:50:34;8.00;99.90
59301;DHT22;45073;52.740;6.784;2024-03-02T07:53:03;8.10;99.90
59301;DHT22;45073;52.740;6.784;2024-03-02T07:55:29;8.10;99.90
59301;DHT22;45073;52.740;6.784;2024-03-02T07:57:56;8.10;99.90
59301;DHT22;45073;52.740;6.784;2024-03-02T08:00:22;8.10;99.90
59301;DHT22;45073;52.740;6.784;2024-03-02T08:02:49;8.20;99.90
59301;DHT22;45073;52.740;6.784;2024-03-02T08:05:16;8.20;99.90
59301;DHT22;45073;52.740;6.784;2024-03-02T08:07:44;8.20;99.90
59301;DHT22;45073;52.740;6.784;2024-03-02T08:10:10;8.30;99.90
59301;DHT22;45073;52.740;6.784;2024-03-02T08:12:35;8.30;99.90
59301;DHT22;45073;52.740;6.784;2024-03-02T08:15:01;8.40;99.90
59301;DHT22;45073;52.740;6.784;2024-03-02T08:17:27;8.40;99.90
59301;DHT22;45073;52.740;6.784;2024-03-02T08:19:53;8.40;99.90
59301;DHT22;45073;52.740;6.784;2024-03-02T08:22:19;8.40;99.90
59301;DHT22;45073;52.740;6.784;2024-03-02T08:24:45;8.50;99.90
59301;DHT22;45073;52.740;6.784;2024-03-02T08:27:11;8.50;99.90
59301;DHT22;45073;52.740;6.784;2024-03-02T08:29:37;8.50;99.90
59301;DHT22;45073;52.740;6.784;2024-03-02T08:32:04;8.60;99.90
59301;DHT22;45073;52.740;6.784;2024-03-02T08:34:30;8.60;99.90
59301;DHT22;45073;52.740;6.784;2024-03-02T08:36:55;8.70;99.90
59301;DHT22;45073;52.740;6.784;2024-03-02T08:39:21;8.90;99.90
59301;DHT22;45073;52.740;6.784;2024-03-02T08:41:47;8.90;99.90
59301;DHT22;45073;52.740;6.784;2024-03-02T08:44:14;9.10;99.90
59301;DHT22;45073;52.740;6.784;2024-03-02T08:46:40;9.10;99.90
59301;DHT22;45073;52.740;6.784;2024-03-02T08:49:07;9.30;99.90
59301;DHT22;45073;52.740;6.784;2024-03-02T08:51:33;9.40;99.90
59301;DHT22;45073;52.740;6.784;2024-03-02T08:53:59;9.50;99.90
59301;DHT22;45073;52.740;6.784;2024-03-02T08:56:25;9.60;99.90
59301;DHT22;45073;52.740;6.784;2024-03-02T08:58:51;9.70;99.90
59301;DHT22;45073;52.740;6.784;2024-03-02T09:01:18;9.80;99.90
59301;DHT22;45073;52.740;6.784;2024-03-02T09:03:45;9.90;99.90
59301;DHT22;45073;52.740;6.784;2024-03-02T09:06:11;9.90;99.90
59301;DHT22;45073;52.740;6.784;2024-03-02T09:08:38;10.00;99.90
59301;DHT22;45073;52.740;6.784;2024-03-02T09:11:05;10.00;99.90
59301;DHT22;45073;52.740;6.784;2024-03-02T09:13:32;10.10;99.90
59301;DHT22;45073;52.740;6.784;2024-03-02T09:15:58;10.10;99.90
59301;DHT22;45073;52.740;6.784;2024-03-02T09:18:24;10.20;99.90
59301;DHT22;45073;52.740;6.784;2024-03-02T09:20:50;10.30;99.90
59301;DHT22;45073;52.740;6.784;2024-03-02T09:23:15;10.50;99.90
59301;DHT22;45073;52.740;6.784;2024-03-02T09:25:41;10.60;99.90
59301;DHT22;45073;52.740;6.784;2024-03-02T09:28:06;10.70;99.90
59301;DHT22;45073;52.740;6.784;2024-03-02T09:30:33;10.70;99.90
59301;DHT22;45073;52.740;6.784;2024-03-02T09:32:58;10.80;99.90
59301;DHT22;45073;52.740;6.784;2024-03-02T09:35:24;10.80;99.90
59301;DHT22;45073;52.740;6.784;2024-03-02T09:37:50;10.80;99.90
59301;DHT22;45073;52.740;6.784;2024-03-02T09:40:16;10.80;99.90
59301;DHT22;45073;52.740;6.784;2024-03-02T09:42:42;10.80;99.90
59301;DHT22;45073;52.740;6.784;2024-03-02T09:45:09;10.90;99.90
59301;DHT22;45073;52.740;6.784;2024-03-02T09:47:35;10.90;99.90
59301;DHT22;45073;52.740;6.784;2024-03-02T09:50:01;11.00;99.90
59301;DHT22;45073;52.740;6.784;2024-03-02T09:52:27;11.00;99.90
59301;DHT22;45073;52.740;6.784;2024-03-02T09:54:53;11.10;99.90
59301;DHT22;45073;52.740;6.784;2024-03-02T09:57:18;11.20;99.90
59301;DHT22;45073;52.740;6.784;2024-03-02T09:59:44;11.30;99.90
59301;DHT22;45073;52.740;6.784;2024-03-02T10:02:11;11.40;99.90
59301;DHT22;45073;52.740;6.784;2024-03-02T10:04:36;11.50;99.90
59301;DHT22;45073;52.740;6.784;2024-03-02T10:07:16;11.60;99.90
59301;DHT22;45073;52.740;6.784;2024-03-02T10:09:42;11.70;99.90
59301;DHT22;45073;52.740;6.784;2024-03-02T10:12:10;11.80;99.90
59301;DHT22;45073;52.740;6.784;2024-03-02T10:14:37;11.90;99.90
59301;DHT22;45073;52.740;6.784;2024-03-02T10:17:07;11.90;99.90
59301;DHT22;45073;52.740;6.784;2024-03-02T10:19:33;11.80;99.90
59301;DHT22;45073;52.740;6.784;2024-03-02T10:22:01;11.70;99.90
59301;DHT22;45073;52.740;6.784;2024-03-02T10:24:34;11.70;99.90
59301;DHT22;45073;52.740;6.784;2024-03-02T10:27:01;11.60;99.90
59301;DHT22;45073;52.740;6.784;2024-03-02T10:29:29;11.50;99.90
59301;DHT22;45073;52.740;6.784;2024-03-02T10:31:55;11.60;99.90
59301;DHT22;45073;52.740;6.784;2024-03-02T10:34:21;11.60;99.90
59301;DHT22;45073;52.740;6.784;2024-03-02T10:36:47;11.60;99.90
59301;DHT22;45073;52.740;6.784;2024-03-02T10:39:14;11.60;99.90
59301;DHT22;45073;52.740;6.784;2024-03-02T10:41:40;11.70;99.90
59301;DHT22;45073;52.740;6.784;2024-03-02T10:44:09;11.80;99.90
59301;DHT22;45073;52.740;6.784;2024-03-02T10:46:36;11.80;99.90
59301;DHT22;45073;52.740;6.784;2024-03-02T10:49:04;11.90;99.90
59301;DHT22;45073;52.740;6.784;2024-03-02T10:51:32;11.90;99.90
59301;DHT22;45073;52.740;6.784;2024-03-02T10:53:59;11.90;99.90
59301;DHT22;45073;52.740;6.784;2024-03-02T10:56:39;12.10;99.90
59301;DHT22;45073;52.740;6.784;2024-03-02T11:01:39;12.40;99.90
59301;DHT22;45073;52.740;6.784;2024-03-02T11:04:07;12.50;99.90
59301;DHT22;45073;52.740;6.784;2024-03-02T11:06:35;12.50;99.90
59301;DHT22;45073;52.740;6.784;2024-03-02T11:09:06;12.60;99.90
59301;DHT22;45073;52.740;6.784;2024-03-02T11:11:37;12.70;99.90
59301;DHT22;45073;52.740;6.784;2024-03-02T11:14:05;12.90;99.90
59301;DHT22;45073;52.740;6.784;2024-03-02T11:19:05;13.10;99.90
59301;DHT22;45073;52.740;6.784;2024-03-02T11:21:35;13.20;99.90
59301;DHT22;45073;52.740;6.784;2024-03-02T11:24:34;13.30;99.60
59301;DHT22;45073;52.740;6.784;2024-03-02T11:27:03;13.30;91.10
59301;DHT22;45073;52.740;6.784;2024-03-02T11:32:18;13.50;97.10
59301;DHT22;45073;52.740;6.784;2024-03-02T11:34:48;13.50;92.60
59301;DHT22;45073;52.740;6.784;2024-03-02T11:37:15;13.50;94.10
59301;DHT22;45073;52.740;6.784;2024-03-02T11:39:44;13.50;95.30
59301;DHT22;45073;52.740;6.784;2024-03-02T11:42:11;13.70;92.00
59301;DHT22;45073;52.740;6.784;2024-03-02T11:44:40;13.90;90.60
59301;DHT22;45073;52.740;6.784;2024-03-02T11:47:07;14.00;90.10
59301;DHT22;45073;52.740;6.784;2024-03-02T11:49:50;14.20;92.00
59301;DHT22;45073;52.740;6.784;2024-03-02T11:52:17;14.30;89.10
59301;DHT22;45073;52.740;6.784;2024-03-02T11:54:47;14.50;91.30
59301;DHT22;45073;52.740;6.784;2024-03-02T11:57:23;14.50;91.60
59301;DHT22;45073;52.740;6.784;2024-03-02T11:59:49;14.50;91.20
59301;DHT22;45073;52.740;6.784;2024-03-02T12:02:19;14.60;85.50
59301;DHT22;45073;52.740;6.784;2024-03-02T12:04:46;14.70;89.30
59301;DHT22;45073;52.740;6.784;2024-03-02T12:07:19;14.80;88.60
59301;DHT22;45073;52.740;6.784;2024-03-02T12:09:45;15.00;90.20
59301;DHT22;45073;52.740;6.784;2024-03-02T12:12:10;15.10;85.00
59301;DHT22;45073;52.740;6.784;2024-03-02T12:14:38;15.40;83.70
59301;DHT22;45073;52.740;6.784;2024-03-02T12:17:05;15.50;85.20
59301;DHT22;45073;52.740;6.784;2024-03-02T12:19:32;15.70;79.10
59301;DHT22;45073;52.740;6.784;2024-03-02T12:21:59;15.80;78.10
59301;DHT22;45073;52.740;6.784;2024-03-02T12:24:28;15.80;79.00
59301;DHT22;45073;52.740;6.784;2024-03-02T12:26:54;16.00;76.40
59301;DHT22;45073;52.740;6.784;2024-03-02T12:29:20;16.30;77.90
59301;DHT22;45073;52.740;6.784;2024-03-02T12:31:50;16.50;76.50
59301;DHT22;45073;52.740;6.784;2024-03-02T12:34:17;16.90;77.30
59301;DHT22;45073;52.740;6.784;2024-03-02T12:36:45;17.20;74.50
59301;DHT22;45073;52.740;6.784;2024-03-02T12:39:13;17.20;71.90
59301;DHT22;45073;52.740;6.784;2024-03-02T12:41:39;17.30;72.30
59301;DHT22;45073;52.740;6.784;2024-03-02T12:44:05;17.60;71.40
59301;DHT22;45073;52.740;6.784;2024-03-02T12:46:32;17.60;69.80
59301;DHT22;45073;52.740;6.784;2024-03-02T12:48:58;17.70;68.50
59301;DHT22;45073;52.740;6.784;2024-03-02T12:51:30;17.60;66.60
59301;DHT22;45073;52.740;6.784;2024-03-02T12:53:57;17.70;68.30
59301;DHT22;45073;52.740;6.784;2024-03-02T12:56:24;17.90;68.60
59301;DHT22;45073;52.740;6.784;2024-03-02T12:58:56;18.30;67.90
59301;DHT22;45073;52.740;6.784;2024-03-02T13:01:23;18.60;67.90
59301;DHT22;45073;52.740;6.784;2024-03-02T13:03:53;18.90;66.80
59301;DHT22;45073;52.740;6.784;2024-03-02T13:06:21;19.30;65.10
59301;DHT22;45073;52.740;6.784;2024-03-02T13:08:46;19.60;64.70
59301;DHT22;45073;52.740;6.784;2024-03-02T13:11:13;19.70;61.50
59301;DHT22;45073;52.740;6.784;2024-03-02T13:13:42;19.80;63.30
59301;DHT22;45073;52.740;6.784;2024-03-02T13:16:09;20.00;61.00
59301;DHT22;45073;52.740;6.784;2024-03-02T13:18:35;20.60;61.90
59301;DHT22;45073;52.740;6.784;2024-03-02T13:21:01;21.90;59.80
59301;DHT22;45073;52.740;6.784;2024-03-02T13:23:27;23.00;57.20
59301;DHT22;45073;52.740;6.784;2024-03-02T13:25:56;23.90;56.00
59301;DHT22;45073;52.740;6.784;2024-03-02T13:28:24;24.90;53.50
59301;DHT22;45073;52.740;6.784;2024-03-02T13:30:49;25.80;52.30
59301;DHT22;45073;52.740;6.784;2024-03-02T13:33:15;26.70;51.40
59301;DHT22;45073;52.740;6.784;2024-03-02T13:35:40;27.30;49.50
59301;DHT22;45073;52.740;6.784;2024-03-02T13:38:06;27.80;49.00
59301;DHT22;45073;52.740;6.784;2024-03-02T13:40:31;28.00;48.80
59301;DHT22;45073;52.740;6.784;2024-03-02T13:43:02;28.30;47.00
59301;DHT22;45073;52.740;6.784;2024-03-02T13:45:27;28.10;45.60
59301;DHT22;45073;52.740;6.784;2024-03-02T13:47:53;27.50;45.10
59301;DHT22;45073;52.740;6.784;2024-03-02T13:50:19;26.80;45.80
59301;DHT22;45073;52.740;6.784;2024-03-02T13:52:45;26.20;46.30
59301;DHT22;45073;52.740;6.784;2024-03-02T13:55:11;25.70;46.10
59301;DHT22;45073;52.740;6.784;2024-03-02T13:57:36;25.10;47.10
59301;DHT22;45073;52.740;6.784;2024-03-02T14:00:04;24.70;47.40
59301;DHT22;45073;52.740;6.784;2024-03-02T14:02:36;24.30;47.50
59301;DHT22;45073;52.740;6.784;2024-03-02T14:05:01;24.00;48.50
59301;DHT22;45073;52.740;6.784;2024-03-02T14:07:27;23.60;48.70
59301;DHT22;45073;52.740;6.784;2024-03-02T14:09:53;23.20;49.40
59301;DHT22;45073;52.740;6.784;2024-03-02T14:12:18;22.80;50.10
59301;DHT22;45073;52.740;6.784;2024-03-02T14:14:44;22.50;50.20
59301;DHT22;45073;52.740;6.784;2024-03-02T14:17:10;22.20;51.00
59301;DHT22;45073;52.740;6.784;2024-03-02T14:19:41;21.90;51.50
59301;DHT22;45073;52.740;6.784;2024-03-02T14:22:06;21.80;51.70
59301;DHT22;45073;52.740;6.784;2024-03-02T14:24:32;21.50;51.60
59301;DHT22;45073;52.740;6.784;2024-03-02T14:26:57;21.50;52.50
59301;DHT22;45073;52.740;6.784;2024-03-02T14:29:27;21.70;52.80
59301;DHT22;45073;52.740;6.784;2024-03-02T14:31:52;21.80;51.70
59301;DHT22;45073;52.740;6.784;2024-03-02T14:34:18;21.70;51.70
59301;DHT22;45073;52.740;6.784;2024-03-02T14:36:43;21.40;51.80
59301;DHT22;45073;52.740;6.784;2024-03-02T14:39:10;21.40;52.20
59301;DHT22;45073;52.740;6.784;2024-03-02T14:41:36;21.50;52.80
59301;DHT22;45073;52.740;6.784;2024-03-02T14:44:02;21.40;52.80
59301;DHT22;45073;52.740;6.784;2024-03-02T14:46:28;21.20;52.80
59301;DHT22;45073;52.740;6.784;2024-03-02T14:48:54;20.90;53.30
59301;DHT22;45073;52.740;6.784;2024-03-02T14:51:20;20.70;53.80
59301;DHT22;45073;52.740;6.784;2024-03-02T14:53:45;20.80;54.30
59301;DHT22;45073;52.740;6.784;2024-03-02T14:56:11;20.80;53.20
59301;DHT22;45073;52.740;6.784;2024-03-02T14:58:38;20.70;53.60
59301;DHT22;45073;52.740;6.784;2024-03-02T15:01:04;21.00;53.80
59301;DHT22;45073;52.740;6.784;2024-03-02T15:03:31;21.40;54.00
59301;DHT22;45073;52.740;6.784;2024-03-02T15:05:57;22.20;53.50
59301;DHT22;45073;52.740;6.784;2024-03-02T15:08:23;23.10;51.70
59301;DHT22;45073;52.740;6.784;2024-03-02T15:10:49;23.80;50.80
59301;DHT22;45073;52.740;6.784;2024-03-02T15:13:14;24.40;50.70
59301;DHT22;45073;52.740;6.784;2024-03-02T15:15:41;25.20;49.60
59301;DHT22;45073;52.740;6.784;2024-03-02T15:18:06;26.20;48.80
59301;DHT22;45073;52.740;6.784;2024-03-02T15:20:35;27.20;47.10
59301;DHT22;45073;52.740;6.784;2024-03-02T15:23:01;28.00;45.70
59301;DHT22;45073;52.740;6.784;2024-03-02T15:25:27;28.80;44.90
59301;DHT22;45073;52.740;6.784;2024-03-02T15:27:54;29.40;43.90
59301;DHT22;45073;52.740;6.784;2024-03-02T15:30:20;29.90;43.30
59301;DHT22;45073;52.740;6.784;2024-03-02T15:32:46;30.20;42.60
59301;DHT22;45073;52.740;6.784;2024-03-02T15:35:12;30.40;42.10
59301;DHT22;45073;52.740;6.784;2024-03-02T15:37:37;30.60;41.80
59301;DHT22;45073;52.740;6.784;2024-03-02T15:40:03;30.60;41.30
59301;DHT22;45073;52.740;6.784;2024-03-02T15:42:34;30.40;40.90
59301;DHT22;45073;52.740;6.784;2024-03-02T15:45:00;29.90;41.00
59301;DHT22;45073;52.740;6.784;2024-03-02T15:47:26;29.60;41.30
59301;DHT22;45073;52.740;6.784;2024-03-02T15:49:51;29.10;41.20